INDIA1 EHAM-VABB
Flight info
| Callsign | INDIA1 |
|---|---|
| Flight time | N/A |
| Altitude | 35000 |
| Route | REND2Z EDUPO Z739 DEGOM L603 BESNI L605 ESEGA DCT SASAL DCT BABIT DCT NISVA Y505 NIKTI UN127 LMO UL618 MES UL609 RDS UL995 VANZA N134 KOMEZ M855 RASDA A16 CVO L315 HGD M872 EVANO J852 WEJ J874 GAS G662 KSA M440 TULBU N881 RASKI L301 KARKU M638 EXOLU |
| Aircraft | B77W/H-SADE1E2E3FGHIJ2J3J4J5J6J7M1M3P1P2P3RUWXYZ/LB1D1 |
Departure
| Time | N/A |
|---|---|
| Airport | Amsterdam Airport Schiphol (EHAM) |
Arrival
| Time | 2026-04-29 02:50 |
|---|---|
| Airport | Chhatrapati Shivaji Maharaj International Airport (VABB) |
| Time | Latitude | Longitude | Altitude | Speed | Heading |
|---|---|---|---|---|---|
| 2026-04-28 23:59 | 24.00265 | 49.40851 | 36778 ft | 534 kts | 116° |
| 2026-04-28 23:59 | 23.98876 | 49.44611 | 36778 ft | 534 kts | 116° |
| 2026-04-28 23:59 | 23.96090 | 49.52140 | 36771 ft | 533 kts | 116° |
| 2026-04-29 00:00 | 23.93306 | 49.59654 | 36774 ft | 533 kts | 116° |
| 2026-04-29 00:00 | 23.90514 | 49.67175 | 36771 ft | 533 kts | 116° |
| 2026-04-29 00:01 | 23.87719 | 49.74693 | 36773 ft | 533 kts | 116° |
| 2026-04-29 00:01 | 23.84935 | 49.82166 | 36773 ft | 533 kts | 116° |
| 2026-04-29 00:02 | 23.82128 | 49.89687 | 36770 ft | 533 kts | 116° |
| 2026-04-29 00:02 | 23.79344 | 49.97134 | 36775 ft | 533 kts | 116° |
| 2026-04-29 00:03 | 23.76532 | 50.04644 | 36778 ft | 533 kts | 116° |
| 2026-04-29 00:03 | 23.73724 | 50.12132 | 36770 ft | 533 kts | 116° |
| 2026-04-29 00:04 | 23.70908 | 50.19627 | 36774 ft | 533 kts | 116° |
| 2026-04-29 00:04 | 23.68113 | 50.27053 | 36772 ft | 532 kts | 116° |
| 2026-04-29 00:05 | 23.65294 | 50.34530 | 36771 ft | 532 kts | 116° |
| 2026-04-29 00:05 | 23.62475 | 50.41995 | 36769 ft | 532 kts | 116° |
| 2026-04-29 00:06 | 23.59652 | 50.49457 | 36769 ft | 532 kts | 116° |
| 2026-04-29 00:06 | 23.56827 | 50.56913 | 36768 ft | 531 kts | 116° |
| 2026-04-29 00:07 | 23.54023 | 50.64300 | 36770 ft | 531 kts | 116° |
| 2026-04-29 00:07 | 23.51190 | 50.71752 | 36770 ft | 531 kts | 116° |
| 2026-04-29 00:08 | 23.48361 | 50.79179 | 36767 ft | 530 kts | 116° |
| 2026-04-29 00:08 | 23.45528 | 50.86606 | 36770 ft | 530 kts | 116° |
| 2026-04-29 00:09 | 23.42697 | 50.94014 | 36765 ft | 530 kts | 116° |
| 2026-04-29 00:09 | 23.39877 | 51.01381 | 36766 ft | 530 kts | 116° |
| 2026-04-29 00:10 | 23.37037 | 51.08790 | 36764 ft | 529 kts | 116° |
| 2026-04-29 00:10 | 23.34197 | 51.16184 | 36765 ft | 529 kts | 115° |
| 2026-04-29 00:11 | 23.31353 | 51.23579 | 36760 ft | 529 kts | 115° |
| 2026-04-29 00:12 | 23.27102 | 51.34606 | 36762 ft | 528 kts | 115° |
| 2026-04-29 00:12 | 23.24257 | 51.41972 | 36763 ft | 528 kts | 115° |
| 2026-04-29 00:13 | 23.21409 | 51.49334 | 36760 ft | 528 kts | 115° |
| 2026-04-29 00:13 | 23.18552 | 51.56707 | 36761 ft | 528 kts | 115° |
| 2026-04-29 00:14 | 23.15704 | 51.64044 | 36761 ft | 527 kts | 115° |
| 2026-04-29 00:14 | 23.12843 | 51.71403 | 36760 ft | 527 kts | 115° |
| 2026-04-29 00:15 | 23.09991 | 51.78727 | 36756 ft | 527 kts | 115° |
| 2026-04-29 00:15 | 23.07147 | 51.86021 | 36757 ft | 526 kts | 115° |
| 2026-04-29 00:16 | 23.04284 | 51.93350 | 36764 ft | 526 kts | 115° |
| 2026-04-29 00:16 | 23.01424 | 52.00661 | 36765 ft | 526 kts | 115° |
| 2026-04-29 00:17 | 22.98572 | 52.07939 | 36750 ft | 525 kts | 115° |
| 2026-04-29 00:17 | 22.95709 | 52.15232 | 36761 ft | 525 kts | 115° |
| 2026-04-29 00:18 | 22.92843 | 52.22523 | 36755 ft | 525 kts | 116° |
| 2026-04-29 00:18 | 22.89992 | 52.29766 | 36753 ft | 524 kts | 116° |
| 2026-04-29 00:19 | 22.87129 | 52.37030 | 36757 ft | 524 kts | 116° |
| 2026-04-29 00:19 | 22.84259 | 52.44306 | 36759 ft | 524 kts | 115° |
| 2026-04-29 00:20 | 22.82074 | 52.51853 | 36753 ft | 527 kts | 104° |
| 2026-04-29 00:20 | 22.80990 | 52.59721 | 36765 ft | 528 kts | 98° |
| 2026-04-29 00:21 | 22.80110 | 52.67611 | 36764 ft | 528 kts | 98° |
| 2026-04-29 00:21 | 22.79204 | 52.75473 | 36763 ft | 527 kts | 99° |
| 2026-04-29 00:22 | 22.78253 | 52.83364 | 36757 ft | 527 kts | 99° |
| 2026-04-29 00:22 | 22.77287 | 52.91239 | 36758 ft | 527 kts | 99° |
| 2026-04-29 00:23 | 22.76315 | 52.99130 | 36755 ft | 527 kts | 99° |
| 2026-04-29 00:23 | 22.75349 | 53.06969 | 36763 ft | 527 kts | 99° |
| 2026-04-29 00:24 | 22.74375 | 53.14852 | 36760 ft | 527 kts | 99° |
| 2026-04-29 00:24 | 22.73403 | 53.22683 | 36761 ft | 527 kts | 99° |
| 2026-04-29 00:25 | 22.72423 | 53.30544 | 36759 ft | 527 kts | 99° |
| 2026-04-29 00:25 | 22.71439 | 53.38415 | 36768 ft | 527 kts | 99° |
| 2026-04-29 00:26 | 22.70448 | 53.46298 | 36764 ft | 527 kts | 99° |
| 2026-04-29 00:26 | 22.69455 | 53.54165 | 36768 ft | 527 kts | 99° |
| 2026-04-29 00:27 | 22.68460 | 53.62022 | 36759 ft | 527 kts | 99° |
| 2026-04-29 00:27 | 22.67460 | 53.69889 | 36757 ft | 527 kts | 99° |
| 2026-04-29 00:28 | 22.66462 | 53.77700 | 36766 ft | 527 kts | 99° |
| 2026-04-29 00:28 | 22.65454 | 53.85568 | 36762 ft | 527 kts | 99° |
| 2026-04-29 00:29 | 22.64442 | 53.93430 | 36764 ft | 527 kts | 99° |
| 2026-04-29 00:29 | 22.63428 | 54.01280 | 36754 ft | 527 kts | 99° |
| 2026-04-29 00:30 | 22.62407 | 54.09149 | 36755 ft | 527 kts | 99° |
| 2026-04-29 00:30 | 22.61393 | 54.16939 | 36763 ft | 527 kts | 99° |
| 2026-04-29 00:31 | 22.60366 | 54.24798 | 36763 ft | 526 kts | 99° |
| 2026-04-29 00:31 | 22.59337 | 54.32645 | 36754 ft | 526 kts | 99° |
| 2026-04-29 00:32 | 22.58302 | 54.40496 | 36758 ft | 526 kts | 99° |
| 2026-04-29 00:32 | 22.57264 | 54.48346 | 36763 ft | 526 kts | 99° |
| 2026-04-29 00:33 | 22.56230 | 54.56138 | 36755 ft | 526 kts | 99° |
| 2026-04-29 00:33 | 22.55185 | 54.63978 | 36754 ft | 526 kts | 99° |
| 2026-04-29 00:34 | 22.54139 | 54.71807 | 36758 ft | 526 kts | 99° |
| 2026-04-29 00:34 | 22.53086 | 54.79652 | 36763 ft | 526 kts | 99° |
| 2026-04-29 00:35 | 22.52036 | 54.87439 | 36757 ft | 526 kts | 99° |
| 2026-04-29 00:35 | 22.50977 | 54.95269 | 36753 ft | 526 kts | 99° |
| 2026-04-29 00:36 | 22.49914 | 55.03101 | 36762 ft | 526 kts | 100° |
| 2026-04-29 00:36 | 22.48847 | 55.10935 | 36763 ft | 526 kts | 99° |
| 2026-04-29 00:37 | 22.47784 | 55.18709 | 36770 ft | 525 kts | 99° |
| 2026-04-29 00:37 | 22.46711 | 55.26534 | 36762 ft | 525 kts | 100° |
| 2026-04-29 00:38 | 22.45865 | 55.34384 | 36752 ft | 526 kts | 91° |
| 2026-04-29 00:38 | 22.46557 | 55.42252 | 36768 ft | 527 kts | 78° |
| 2026-04-29 00:39 | 22.48627 | 55.49868 | 36771 ft | 527 kts | 72° |
| 2026-04-29 00:39 | 22.50902 | 55.57356 | 36764 ft | 527 kts | 72° |
| 2026-04-29 00:40 | 22.52781 | 55.63650 | 36763 ft | 528 kts | 72° |
| 2026-04-29 00:40 | 22.54991 | 55.71242 | 37138 ft | 529 kts | 73° |
| 2026-04-29 00:40 | 22.56082 | 55.75030 | 37524 ft | 526 kts | 73° |
| 2026-04-29 00:41 | 22.57167 | 55.78804 | 37953 ft | 523 kts | 73° |
| 2026-04-29 00:41 | 22.58247 | 55.82565 | 38340 ft | 521 kts | 73° |
| 2026-04-29 00:41 | 22.59321 | 55.86307 | 38637 ft | 520 kts | 73° |
| 2026-04-29 00:42 | 22.61474 | 55.93806 | 38745 ft | 523 kts | 73° |
| 2026-04-29 00:42 | 22.63629 | 56.01319 | 38774 ft | 521 kts | 73° |
| 2026-04-29 00:43 | 22.65759 | 56.08758 | 38780 ft | 518 kts | 73° |
| 2026-04-29 00:43 | 22.67887 | 56.16208 | 38786 ft | 517 kts | 73° |
| 2026-04-29 00:44 | 22.70011 | 56.23660 | 38790 ft | 517 kts | 73° |
| 2026-04-29 00:44 | 22.72131 | 56.31111 | 38795 ft | 518 kts | 73° |
| 2026-04-29 00:45 | 22.74253 | 56.38583 | 38803 ft | 519 kts | 73° |
| 2026-04-29 00:45 | 22.76375 | 56.46069 | 38807 ft | 520 kts | 73° |
| 2026-04-29 00:46 | 22.78486 | 56.53531 | 38809 ft | 522 kts | 73° |
| 2026-04-29 00:46 | 22.80611 | 56.61059 | 38821 ft | 523 kts | 73° |
| 2026-04-29 00:47 | 22.82737 | 56.68603 | 38828 ft | 523 kts | 73° |
| 2026-04-29 00:47 | 22.84863 | 56.76161 | 38841 ft | 524 kts | 73° |
| 2026-04-29 00:48 | 22.86987 | 56.83730 | 38849 ft | 524 kts | 73° |
| 2026-04-29 00:48 | 22.89094 | 56.91253 | 38858 ft | 524 kts | 73° |
| 2026-04-29 00:49 | 22.91209 | 56.98819 | 38864 ft | 524 kts | 73° |
| 2026-04-29 00:49 | 22.93319 | 57.06382 | 38873 ft | 523 kts | 73° |
| 2026-04-29 00:50 | 22.95420 | 57.13932 | 38879 ft | 523 kts | 73° |
| 2026-04-29 00:50 | 22.97520 | 57.21487 | 38878 ft | 522 kts | 73° |
| 2026-04-29 00:51 | 22.99499 | 57.29077 | 38885 ft | 522 kts | 79° |
| 2026-04-29 00:51 | 23.00418 | 57.36865 | 38886 ft | 520 kts | 89° |
| 2026-04-29 00:52 | 23.00613 | 57.44666 | 38888 ft | 520 kts | 90° |
| 2026-04-29 00:52 | 23.00801 | 57.52521 | 38889 ft | 521 kts | 89° |
| 2026-04-29 00:53 | 23.01037 | 57.60405 | 38890 ft | 522 kts | 89° |
| 2026-04-29 00:53 | 23.01286 | 57.68298 | 38887 ft | 522 kts | 89° |
| 2026-04-29 00:54 | 23.01528 | 57.76182 | 38875 ft | 523 kts | 89° |
| 2026-04-29 00:54 | 23.01765 | 57.84086 | 38859 ft | 523 kts | 89° |
| 2026-04-29 00:55 | 23.01881 | 57.91973 | 38851 ft | 522 kts | 91° |
| 2026-04-29 00:55 | 23.01846 | 57.99808 | 38843 ft | 521 kts | 91° |
| 2026-04-29 00:56 | 23.01819 | 58.07674 | 38839 ft | 521 kts | 91° |
| 2026-04-29 00:56 | 23.01816 | 58.15554 | 38844 ft | 520 kts | 91° |
| 2026-04-29 00:57 | 23.01816 | 58.23411 | 38837 ft | 520 kts | 91° |
| 2026-04-29 00:57 | 23.01809 | 58.31211 | 38835 ft | 520 kts | 91° |
| 2026-04-29 00:58 | 23.01804 | 58.39056 | 38829 ft | 520 kts | 90° |
| 2026-04-29 00:58 | 23.02027 | 58.46905 | 38829 ft | 519 kts | 88° |
| 2026-04-29 00:59 | 23.02359 | 58.54753 | 38829 ft | 519 kts | 88° |
| 2026-04-29 00:59 | 23.02649 | 58.62546 | 38822 ft | 520 kts | 89° |
| 2026-04-29 01:00 | 23.02906 | 58.70404 | 38813 ft | 520 kts | 89° |
| 2026-04-29 01:00 | 23.03153 | 58.78255 | 38819 ft | 520 kts | 89° |
| 2026-04-29 01:01 | 23.03399 | 58.86056 | 38804 ft | 520 kts | 89° |
| 2026-04-29 01:01 | 23.03646 | 58.93910 | 38797 ft | 521 kts | 89° |
| 2026-04-29 01:02 | 23.03887 | 59.01766 | 38790 ft | 521 kts | 89° |
| 2026-04-29 01:02 | 23.04118 | 59.09640 | 38796 ft | 521 kts | 89° |
| 2026-04-29 01:03 | 23.04345 | 59.17529 | 38791 ft | 522 kts | 89° |
| 2026-04-29 01:03 | 23.04568 | 59.25360 | 38782 ft | 522 kts | 89° |
| 2026-04-29 01:04 | 23.04789 | 59.33264 | 38774 ft | 522 kts | 89° |
| 2026-04-29 01:04 | 23.04988 | 59.41105 | 38766 ft | 522 kts | 90° |
| 2026-04-29 01:05 | 23.05110 | 59.48982 | 38759 ft | 522 kts | 90° |
| 2026-04-29 01:05 | 23.05218 | 59.56856 | 38756 ft | 522 kts | 90° |
| 2026-04-29 01:06 | 23.05335 | 59.64736 | 38756 ft | 522 kts | 90° |
| 2026-04-29 01:06 | 23.05453 | 59.72583 | 38754 ft | 522 kts | 90° |
| 2026-04-29 01:07 | 23.05567 | 59.80467 | 38755 ft | 522 kts | 90° |
| 2026-04-29 01:07 | 23.05677 | 59.88353 | 38755 ft | 522 kts | 90° |
| 2026-04-29 01:08 | 23.05776 | 59.96228 | 38757 ft | 522 kts | 90° |
| 2026-04-29 01:08 | 23.05862 | 60.04113 | 38757 ft | 522 kts | 90° |
| 2026-04-29 01:09 | 23.05944 | 60.11942 | 38756 ft | 522 kts | 90° |
| 2026-04-29 01:09 | 23.06025 | 60.19825 | 38757 ft | 522 kts | 90° |
| 2026-04-29 01:10 | 23.06102 | 60.27699 | 38754 ft | 522 kts | 90° |
| 2026-04-29 01:10 | 23.06175 | 60.35580 | 38755 ft | 522 kts | 90° |
| 2026-04-29 01:11 | 23.06244 | 60.43468 | 38755 ft | 522 kts | 90° |
| 2026-04-29 01:11 | 23.06310 | 60.51356 | 38758 ft | 522 kts | 90° |
| 2026-04-29 01:12 | 23.06371 | 60.59198 | 38755 ft | 522 kts | 90° |
| 2026-04-29 01:12 | 23.06431 | 60.67098 | 38751 ft | 522 kts | 90° |
| 2026-04-29 01:13 | 23.06494 | 60.74981 | 38752 ft | 523 kts | 90° |
| 2026-04-29 01:13 | 23.06556 | 60.82894 | 38754 ft | 523 kts | 90° |
| 2026-04-29 01:14 | 23.06612 | 60.90795 | 38754 ft | 523 kts | 90° |
| 2026-04-29 01:14 | 23.06663 | 60.98647 | 38756 ft | 523 kts | 90° |
| 2026-04-29 01:15 | 23.06711 | 61.06550 | 38754 ft | 523 kts | 90° |
| 2026-04-29 01:15 | 23.06755 | 61.14462 | 38752 ft | 523 kts | 90° |
| 2026-04-29 01:16 | 23.06795 | 61.22366 | 38752 ft | 523 kts | 90° |
| 2026-04-29 01:16 | 23.06831 | 61.30220 | 38753 ft | 523 kts | 90° |
| 2026-04-29 01:17 | 23.06864 | 61.38118 | 38750 ft | 523 kts | 90° |
| 2026-04-29 01:17 | 23.06893 | 61.46028 | 38750 ft | 523 kts | 90° |
| 2026-04-29 01:18 | 23.06922 | 61.53927 | 38754 ft | 523 kts | 90° |
| 2026-04-29 01:18 | 23.06973 | 61.65736 | 38755 ft | 523 kts | 90° |
| 2026-04-29 01:19 | 23.07001 | 61.73635 | 38752 ft | 523 kts | 90° |
| 2026-04-29 01:19 | 23.07012 | 61.81548 | 38751 ft | 523 kts | 90° |
| 2026-04-29 01:20 | 23.07011 | 61.89456 | 38750 ft | 523 kts | 90° |
| 2026-04-29 01:20 | 23.07007 | 61.97312 | 38752 ft | 523 kts | 90° |
| 2026-04-29 01:21 | 23.07001 | 62.05214 | 38749 ft | 523 kts | 90° |
| 2026-04-29 01:21 | 23.06992 | 62.13124 | 38751 ft | 523 kts | 90° |
| 2026-04-29 01:22 | 23.06979 | 62.21031 | 38746 ft | 523 kts | 90° |
| 2026-04-29 01:22 | 23.06962 | 62.28938 | 38752 ft | 523 kts | 90° |
| 2026-04-29 01:23 | 23.06941 | 62.36791 | 38749 ft | 523 kts | 90° |
| 2026-04-29 01:23 | 23.06916 | 62.44698 | 38756 ft | 523 kts | 90° |
| 2026-04-29 01:24 | 23.06888 | 62.52601 | 38752 ft | 523 kts | 90° |
| 2026-04-29 01:24 | 23.06855 | 62.60506 | 38751 ft | 523 kts | 90° |
| 2026-04-29 01:25 | 23.06818 | 62.68423 | 38753 ft | 523 kts | 90° |
| 2026-04-29 01:25 | 23.06778 | 62.76284 | 38754 ft | 523 kts | 90° |
| 2026-04-29 01:26 | 23.06733 | 62.84187 | 38754 ft | 523 kts | 90° |
| 2026-04-29 01:26 | 23.06685 | 62.92091 | 38753 ft | 523 kts | 90° |
| 2026-04-29 01:27 | 23.06632 | 62.99996 | 38755 ft | 523 kts | 90° |
| 2026-04-29 01:27 | 23.06586 | 63.06577 | 38758 ft | 523 kts | 90° |
| 2026-04-29 01:28 | 23.06526 | 63.14497 | 38755 ft | 523 kts | 90° |
| 2026-04-29 01:28 | 23.06463 | 63.22355 | 38759 ft | 523 kts | 90° |
| 2026-04-29 01:29 | 23.06395 | 63.30273 | 38759 ft | 523 kts | 90° |
| 2026-04-29 01:29 | 23.06324 | 63.38177 | 38758 ft | 523 kts | 90° |
| 2026-04-29 01:30 | 23.06249 | 63.46050 | 38756 ft | 523 kts | 90° |
| 2026-04-29 01:30 | 23.06169 | 63.53957 | 38757 ft | 523 kts | 90° |
| 2026-04-29 01:31 | 23.06086 | 63.61863 | 38758 ft | 523 kts | 90° |
| 2026-04-29 01:31 | 23.05999 | 63.69758 | 38757 ft | 523 kts | 90° |
| 2026-04-29 01:32 | 23.05909 | 63.77655 | 38756 ft | 523 kts | 90° |
| 2026-04-29 01:32 | 23.05377 | 63.85473 | 38758 ft | 523 kts | 100° |
| 2026-04-29 01:33 | 23.03512 | 63.93098 | 38757 ft | 522 kts | 111° |
| 2026-04-29 01:33 | 23.00753 | 64.00408 | 38767 ft | 522 kts | 113° |
| 2026-04-29 01:34 | 22.97944 | 64.07634 | 38754 ft | 523 kts | 113° |
| 2026-04-29 01:34 | 22.95147 | 64.14932 | 38756 ft | 523 kts | 112° |
| 2026-04-29 01:35 | 22.92383 | 64.22233 | 38761 ft | 523 kts | 112° |
| 2026-04-29 01:35 | 22.89629 | 64.29518 | 38756 ft | 524 kts | 112° |
| 2026-04-29 01:36 | 22.86857 | 64.36835 | 38763 ft | 524 kts | 112° |
| 2026-04-29 01:36 | 22.84080 | 64.44145 | 38759 ft | 524 kts | 112° |
| 2026-04-29 01:37 | 22.81294 | 64.51462 | 38760 ft | 524 kts | 112° |
| 2026-04-29 01:37 | 22.78504 | 64.58781 | 38761 ft | 525 kts | 112° |
| 2026-04-29 01:38 | 22.75713 | 64.66088 | 38760 ft | 525 kts | 112° |
| 2026-04-29 01:38 | 22.72936 | 64.73350 | 38760 ft | 525 kts | 112° |
| 2026-04-29 01:39 | 22.70140 | 64.80649 | 38762 ft | 524 kts | 112° |
| 2026-04-29 01:39 | 22.67335 | 64.87959 | 38762 ft | 524 kts | 112° |
| 2026-04-29 01:40 | 22.64533 | 64.95253 | 38764 ft | 524 kts | 112° |
| 2026-04-29 01:40 | 22.61741 | 65.02507 | 38762 ft | 524 kts | 112° |
| 2026-04-29 01:41 | 22.58929 | 65.09799 | 38766 ft | 524 kts | 112° |
| 2026-04-29 01:41 | 22.56120 | 65.17075 | 38764 ft | 524 kts | 112° |
| 2026-04-29 01:42 | 22.53322 | 65.24312 | 38763 ft | 524 kts | 112° |
| 2026-04-29 01:42 | 22.50501 | 65.31595 | 38762 ft | 524 kts | 112° |
| 2026-04-29 01:43 | 22.47680 | 65.38867 | 38768 ft | 524 kts | 112° |
| 2026-04-29 01:43 | 22.44869 | 65.46102 | 38766 ft | 524 kts | 112° |
| 2026-04-29 01:44 | 22.42039 | 65.53375 | 38763 ft | 524 kts | 112° |
| 2026-04-29 01:44 | 22.39205 | 65.60647 | 38767 ft | 524 kts | 112° |
| 2026-04-29 01:45 | 22.36366 | 65.67920 | 38765 ft | 525 kts | 112° |
| 2026-04-29 01:45 | 22.33543 | 65.75140 | 38770 ft | 525 kts | 112° |
| 2026-04-29 01:46 | 22.30694 | 65.82417 | 38768 ft | 525 kts | 112° |
| 2026-04-29 01:46 | 22.27847 | 65.89678 | 38769 ft | 525 kts | 112° |
| 2026-04-29 01:47 | 22.24993 | 65.96944 | 38769 ft | 525 kts | 112° |
| 2026-04-29 01:47 | 22.22137 | 66.04205 | 38768 ft | 525 kts | 112° |
| 2026-04-29 01:48 | 22.19291 | 66.11427 | 38771 ft | 525 kts | 112° |
| 2026-04-29 01:48 | 22.16430 | 66.18681 | 38768 ft | 525 kts | 112° |
| 2026-04-29 01:49 | 22.13567 | 66.25925 | 38772 ft | 525 kts | 112° |
| 2026-04-29 01:49 | 22.10703 | 66.33163 | 38774 ft | 525 kts | 112° |
| 2026-04-29 01:50 | 22.07831 | 66.40410 | 38769 ft | 525 kts | 112° |
| 2026-04-29 01:50 | 22.04980 | 66.47596 | 38771 ft | 524 kts | 112° |
| 2026-04-29 01:51 | 22.02101 | 66.54832 | 38772 ft | 524 kts | 112° |
| 2026-04-29 01:51 | 21.99217 | 66.62067 | 38772 ft | 524 kts | 112° |
| 2026-04-29 01:52 | 21.96347 | 66.69259 | 38775 ft | 524 kts | 112° |
| 2026-04-29 01:52 | 21.93458 | 66.76491 | 38773 ft | 524 kts | 112° |
| 2026-04-29 01:53 | 21.90570 | 66.83712 | 38772 ft | 524 kts | 112° |
| 2026-04-29 01:53 | 21.87679 | 66.90926 | 38773 ft | 524 kts | 112° |
| 2026-04-29 01:54 | 21.84802 | 66.98096 | 38772 ft | 524 kts | 112° |
| 2026-04-29 01:54 | 21.81903 | 67.05309 | 38772 ft | 524 kts | 112° |
| 2026-04-29 01:55 | 21.78996 | 67.12533 | 38775 ft | 524 kts | 112° |
| 2026-04-29 01:55 | 21.76096 | 67.19727 | 38776 ft | 524 kts | 112° |
| 2026-04-29 01:56 | 21.73204 | 67.26892 | 38772 ft | 524 kts | 112° |
| 2026-04-29 01:56 | 21.70294 | 67.34092 | 38772 ft | 524 kts | 112° |
| 2026-04-29 01:57 | 21.67405 | 67.41226 | 38777 ft | 523 kts | 112° |
| 2026-04-29 01:57 | 21.64498 | 67.48397 | 38774 ft | 523 kts | 112° |
| 2026-04-29 01:58 | 21.61585 | 67.55571 | 38773 ft | 523 kts | 112° |
| 2026-04-29 01:58 | 21.58668 | 67.62745 | 38772 ft | 523 kts | 112° |
| 2026-04-29 01:59 | 21.55750 | 67.69913 | 38775 ft | 523 kts | 112° |
| 2026-04-29 01:59 | 21.52830 | 67.77073 | 38775 ft | 523 kts | 112° |
| 2026-04-29 02:00 | 21.49927 | 67.84180 | 38773 ft | 523 kts | 112° |
| 2026-04-29 02:00 | 21.47000 | 67.91338 | 38774 ft | 523 kts | 112° |
| 2026-04-29 02:01 | 21.44086 | 67.98453 | 38779 ft | 523 kts | 112° |
| 2026-04-29 02:01 | 21.41154 | 68.05602 | 38779 ft | 523 kts | 112° |
| 2026-04-29 02:02 | 21.38221 | 68.12742 | 38778 ft | 523 kts | 112° |
| 2026-04-29 02:02 | 21.35285 | 68.19879 | 38774 ft | 522 kts | 112° |
| 2026-04-29 02:03 | 21.32343 | 68.27022 | 38790 ft | 523 kts | 112° |
| 2026-04-29 02:03 | 21.29417 | 68.34116 | 38783 ft | 523 kts | 112° |
| 2026-04-29 02:04 | 21.26466 | 68.41259 | 38782 ft | 522 kts | 112° |
| 2026-04-29 02:04 | 21.23534 | 68.48346 | 38781 ft | 522 kts | 112° |
| 2026-04-29 02:05 | 21.20587 | 68.55463 | 38785 ft | 522 kts | 112° |
| 2026-04-29 02:05 | 21.17636 | 68.62576 | 38784 ft | 522 kts | 112° |
| 2026-04-29 02:06 | 21.14682 | 68.69689 | 38784 ft | 522 kts | 112° |
| 2026-04-29 02:06 | 21.11724 | 68.76797 | 38786 ft | 522 kts | 112° |
| 2026-04-29 02:07 | 21.08781 | 68.83862 | 38787 ft | 522 kts | 112° |
| 2026-04-29 02:07 | 21.05831 | 68.90936 | 38788 ft | 521 kts | 112° |
| 2026-04-29 02:08 | 21.02867 | 68.98032 | 38786 ft | 521 kts | 112° |
| 2026-04-29 02:08 | 20.99902 | 69.05124 | 38787 ft | 521 kts | 112° |
| 2026-04-29 02:09 | 20.97011 | 69.12233 | 38790 ft | 520 kts | 108° |
| 2026-04-29 02:09 | 20.94748 | 69.19565 | 38794 ft | 519 kts | 105° |
| 2026-04-29 02:10 | 20.92599 | 69.26898 | 38788 ft | 519 kts | 105° |
| 2026-04-29 02:10 | 20.90417 | 69.34254 | 38789 ft | 519 kts | 105° |
| 2026-04-29 02:11 | 20.88208 | 69.41580 | 38789 ft | 519 kts | 105° |
| 2026-04-29 02:11 | 20.85973 | 69.48944 | 38793 ft | 520 kts | 105° |
| 2026-04-29 02:12 | 20.83737 | 69.56302 | 38790 ft | 520 kts | 105° |
| 2026-04-29 02:12 | 20.81502 | 69.63652 | 38792 ft | 520 kts | 105° |
| 2026-04-29 02:13 | 20.79261 | 69.71011 | 38796 ft | 520 kts | 105° |
| 2026-04-29 02:13 | 20.77033 | 69.78315 | 38792 ft | 520 kts | 105° |
| 2026-04-29 02:14 | 20.74786 | 69.85671 | 38795 ft | 520 kts | 105° |
| 2026-04-29 02:14 | 20.72534 | 69.93028 | 38796 ft | 520 kts | 105° |
| 2026-04-29 02:15 | 20.70286 | 70.00360 | 38796 ft | 520 kts | 105° |
| 2026-04-29 02:15 | 20.68045 | 70.07656 | 38800 ft | 520 kts | 105° |
| 2026-04-29 02:16 | 20.65788 | 70.14996 | 38800 ft | 519 kts | 105° |
| 2026-04-29 02:16 | 20.63911 | 70.21086 | 38798 ft | 519 kts | 105° |
| 2026-04-29 02:17 | 20.61651 | 70.28411 | 38804 ft | 519 kts | 105° |
| 2026-04-29 02:17 | 20.59385 | 70.35743 | 38804 ft | 519 kts | 105° |
| 2026-04-29 02:18 | 20.57114 | 70.43080 | 38800 ft | 520 kts | 105° |
| 2026-04-29 02:18 | 20.54841 | 70.50410 | 38803 ft | 520 kts | 105° |
| 2026-04-29 02:19 | 20.52582 | 70.57684 | 38800 ft | 520 kts | 105° |
| 2026-04-29 02:19 | 20.50305 | 70.65001 | 38808 ft | 520 kts | 105° |
| 2026-04-29 02:20 | 20.48023 | 70.72324 | 38808 ft | 520 kts | 105° |
| 2026-04-29 02:20 | 20.45735 | 70.79657 | 38806 ft | 520 kts | 105° |
| 2026-04-29 02:21 | 20.43445 | 70.86980 | 38806 ft | 520 kts | 105° |
| 2026-04-29 02:21 | 20.41153 | 70.94298 | 38806 ft | 520 kts | 105° |
| 2026-04-29 02:22 | 20.38870 | 71.01576 | 38808 ft | 521 kts | 105° |
| 2026-04-29 02:22 | 20.36565 | 71.08916 | 38809 ft | 521 kts | 105° |
| 2026-04-29 02:23 | 20.34257 | 71.16250 | 38811 ft | 521 kts | 105° |
| 2026-04-29 02:23 | 20.31963 | 71.23528 | 38812 ft | 521 kts | 105° |
| 2026-04-29 02:24 | 20.29652 | 71.30848 | 38815 ft | 522 kts | 105° |
| 2026-04-29 02:25 | 20.26173 | 71.41850 | 38815 ft | 522 kts | 105° |
| 2026-04-29 02:25 | 20.23865 | 71.49130 | 38645 ft | 512 kts | 105° |
| 2026-04-29 02:25 | 20.22673 | 71.52668 | 38124 ft | 509 kts | 110° |
| 2026-04-29 02:26 | 20.21109 | 71.56080 | 37160 ft | 516 kts | 118° |
| 2026-04-29 02:26 | 20.19167 | 71.59333 | 36104 ft | 524 kts | 124° |
| 2026-04-29 02:26 | 20.16862 | 71.62380 | 35060 ft | 532 kts | 132° |
| 2026-04-29 02:26 | 20.14357 | 71.65253 | 34162 ft | 541 kts | 133° |
| 2026-04-29 02:27 | 20.11747 | 71.68176 | 33551 ft | 544 kts | 134° |
| 2026-04-29 02:27 | 20.09139 | 71.71095 | 33088 ft | 542 kts | 134° |
| 2026-04-29 02:27 | 20.06556 | 71.74012 | 32600 ft | 541 kts | 134° |
| 2026-04-29 02:27 | 20.03982 | 71.76946 | 32006 ft | 542 kts | 134° |
| 2026-04-29 02:28 | 20.01417 | 71.79892 | 31335 ft | 544 kts | 134° |
| 2026-04-29 02:28 | 19.98840 | 71.82860 | 30714 ft | 546 kts | 134° |
| 2026-04-29 02:28 | 19.96270 | 71.85822 | 30272 ft | 543 kts | 134° |
| 2026-04-29 02:28 | 19.93720 | 71.88758 | 29920 ft | 538 kts | 134° |
| 2026-04-29 02:29 | 19.91191 | 71.91665 | 29530 ft | 533 kts | 134° |
| 2026-04-29 02:29 | 19.88714 | 71.94507 | 29216 ft | 528 kts | 134° |
| 2026-04-29 02:29 | 19.86245 | 71.97339 | 29166 ft | 517 kts | 134° |
| 2026-04-29 02:30 | 19.81427 | 72.02863 | 29056 ft | 500 kts | 134° |
| 2026-04-29 02:30 | 19.76766 | 72.08187 | 28950 ft | 485 kts | 136° |
| 2026-04-29 02:31 | 19.71911 | 72.12996 | 28882 ft | 470 kts | 141° |
| 2026-04-29 02:31 | 19.67028 | 72.17473 | 28800 ft | 458 kts | 141° |
| 2026-04-29 02:32 | 19.62287 | 72.21882 | 28748 ft | 448 kts | 141° |
| 2026-04-29 02:32 | 19.57709 | 72.26210 | 28671 ft | 439 kts | 141° |
| 2026-04-29 02:33 | 19.53206 | 72.30483 | 28607 ft | 430 kts | 141° |
| 2026-04-29 02:33 | 19.48772 | 72.34687 | 28403 ft | 426 kts | 141° |
| 2026-04-29 02:33 | 19.46560 | 72.36781 | 28233 ft | 425 kts | 141° |
| 2026-04-29 02:34 | 19.44352 | 72.38870 | 28088 ft | 424 kts | 141° |
| 2026-04-29 02:34 | 19.42176 | 72.40930 | 27955 ft | 423 kts | 140° |
| 2026-04-29 02:34 | 19.39983 | 72.43003 | 27819 ft | 422 kts | 140° |
| 2026-04-29 02:34 | 19.37806 | 72.45113 | 27251 ft | 428 kts | 136° |
| 2026-04-29 02:35 | 19.35873 | 72.47571 | 26300 ft | 441 kts | 125° |
| 2026-04-29 02:35 | 19.34436 | 72.50182 | 25457 ft | 450 kts | 115° |
| 2026-04-29 02:35 | 19.33308 | 72.53307 | 24566 ft | 456 kts | 105° |
| 2026-04-29 02:35 | 19.32679 | 72.56618 | 23694 ft | 460 kts | 95° |
| 2026-04-29 02:36 | 19.32571 | 72.60014 | 22725 ft | 462 kts | 85° |
| 2026-04-29 02:36 | 19.32987 | 72.63389 | 21720 ft | 463 kts | 76° |
| 2026-04-29 02:36 | 19.33917 | 72.66650 | 20741 ft | 462 kts | 67° |
| 2026-04-29 02:36 | 19.35312 | 72.69665 | 19803 ft | 461 kts | 58° |
| 2026-04-29 02:37 | 19.37163 | 72.72422 | 18892 ft | 457 kts | 49° |
| 2026-04-29 02:37 | 19.39318 | 72.74723 | 17936 ft | 425 kts | 39° |
| 2026-04-29 02:37 | 19.41656 | 72.76471 | 16915 ft | 400 kts | 28° |
| 2026-04-29 02:37 | 19.44117 | 72.77663 | 15941 ft | 380 kts | 17° |
| 2026-04-29 02:38 | 19.46629 | 72.78271 | 15111 ft | 360 kts | 4° |
| 2026-04-29 02:38 | 19.49060 | 72.78193 | 14353 ft | 342 kts | 347° |
| 2026-04-29 02:38 | 19.51237 | 72.77344 | 13581 ft | 327 kts | 327° |
| 2026-04-29 02:38 | 19.52869 | 72.75758 | 12820 ft | 312 kts | 302° |
| 2026-04-29 02:39 | 19.53672 | 72.73720 | 12316 ft | 293 kts | 278° |
| 2026-04-29 02:39 | 19.53570 | 72.71615 | 11818 ft | 286 kts | 252° |
| 2026-04-29 02:39 | 19.52614 | 72.69794 | 11356 ft | 291 kts | 227° |
| 2026-04-29 02:39 | 19.50971 | 72.68561 | 10889 ft | 292 kts | 202° |
| 2026-04-29 02:40 | 19.48980 | 72.68204 | 10425 ft | 292 kts | 178° |
| 2026-04-29 02:40 | 19.47038 | 72.68793 | 9964 ft | 294 kts | 152° |
| 2026-04-29 02:40 | 19.45465 | 72.70155 | 9581 ft | 291 kts | 135° |
| 2026-04-29 02:40 | 19.44134 | 72.71778 | 9217 ft | 293 kts | 132° |
| 2026-04-29 02:41 | 19.42821 | 72.73469 | 8882 ft | 299 kts | 131° |
| 2026-04-29 02:41 | 19.41494 | 72.75183 | 8523 ft | 301 kts | 131° |
| 2026-04-29 02:41 | 19.40165 | 72.76897 | 8159 ft | 301 kts | 131° |
| 2026-04-29 02:41 | 19.38827 | 72.78612 | 7803 ft | 302 kts | 131° |
| 2026-04-29 02:42 | 19.37484 | 72.80325 | 7445 ft | 303 kts | 131° |
| 2026-04-29 02:42 | 19.36134 | 72.82034 | 7093 ft | 303 kts | 130° |
| 2026-04-29 02:42 | 19.34774 | 72.83742 | 6820 ft | 301 kts | 130° |
| 2026-04-29 02:42 | 19.33448 | 72.85396 | 6596 ft | 297 kts | 131° |
| 2026-04-29 02:43 | 19.32116 | 72.87049 | 6358 ft | 294 kts | 131° |
| 2026-04-29 02:43 | 19.30787 | 72.88689 | 6115 ft | 294 kts | 131° |
| 2026-04-29 02:43 | 19.29444 | 72.90338 | 5903 ft | 297 kts | 131° |
| 2026-04-29 02:43 | 19.28083 | 72.92001 | 5670 ft | 299 kts | 131° |
| 2026-04-29 02:44 | 19.26720 | 72.93661 | 5432 ft | 298 kts | 130° |
| 2026-04-29 02:44 | 19.25359 | 72.95312 | 5181 ft | 297 kts | 131° |
| 2026-04-29 02:44 | 19.24004 | 72.96946 | 4969 ft | 293 kts | 131° |
| 2026-04-29 02:44 | 19.22665 | 72.98559 | 4721 ft | 289 kts | 131° |
| 2026-04-29 02:45 | 19.21344 | 73.00152 | 4474 ft | 287 kts | 131° |
| 2026-04-29 02:45 | 19.20034 | 73.01730 | 4245 ft | 285 kts | 130° |
| 2026-04-29 02:45 | 19.18727 | 73.03296 | 3990 ft | 282 kts | 131° |
| 2026-04-29 02:45 | 19.17237 | 73.04545 | 3719 ft | 280 kts | 158° |
| 2026-04-29 02:46 | 19.15359 | 73.05112 | 3526 ft | 284 kts | 167° |
| 2026-04-29 02:46 | 19.13415 | 73.05605 | 3259 ft | 286 kts | 172° |
| 2026-04-29 02:46 | 19.11462 | 73.05466 | 3063 ft | 279 kts | 202° |
| 2026-04-29 02:46 | 19.09903 | 73.04407 | 3005 ft | 259 kts | 231° |
| 2026-04-29 02:47 | 19.09065 | 73.02772 | 2692 ft | 253 kts | 261° |
| 2026-04-29 02:47 | 19.08998 | 73.00939 | 2416 ft | 249 kts | 275° |
| 2026-04-29 02:47 | 19.09034 | 72.99137 | 2091 ft | 244 kts | 270° |
| 2026-04-29 02:47 | 19.09003 | 72.97394 | 1782 ft | 229 kts | 269° |
| 2026-04-29 02:48 | 19.08980 | 72.95760 | 1492 ft | 216 kts | 269° |
| 2026-04-29 02:48 | 19.08961 | 72.94227 | 1260 ft | 200 kts | 269° |
| 2026-04-29 02:48 | 19.08944 | 72.92808 | 1009 ft | 186 kts | 269° |
| 2026-04-29 02:48 | 19.08927 | 72.91492 | 772 ft | 172 kts | 269° |
| 2026-04-29 02:49 | 19.08912 | 72.90281 | 547 ft | 155 kts | 269° |
| 2026-04-29 02:49 | 19.08903 | 72.89190 | 359 ft | 147 kts | 269° |
| 2026-04-29 02:49 | 19.08894 | 72.88103 | 163 ft | 149 kts | 268° |
| 2026-04-29 02:49 | 19.08885 | 72.87028 | 52 ft | 139 kts | 269° |
| 2026-04-29 02:50 | 19.08864 | 72.86214 | 52 ft | 78 kts | 269° |
| 2026-04-29 02:50 | 19.08853 | 72.85901 | 48 ft | 16 kts | 250° |
| 2026-04-29 02:50 | 19.08815 | 72.85870 | 50 ft | 5 kts | 181° |
| 2026-04-29 02:50 | 19.08772 | 72.85924 | 51 ft | 18 kts | 120° |
| 2026-04-29 02:51 | 19.08740 | 72.86054 | 54 ft | 19 kts | 90° |
| 2026-04-29 02:51 | 19.08740 | 72.86192 | 54 ft | 19 kts | 90° |
| 2026-04-29 02:51 | 19.08744 | 72.86330 | 53 ft | 19 kts | 88° |
| 2026-04-29 02:51 | 19.08745 | 72.86468 | 54 ft | 19 kts | 90° |
| 2026-04-29 02:52 | 19.08738 | 72.86604 | 49 ft | 19 kts | 92° |
| 2026-04-29 02:52 | 19.08701 | 72.86681 | 50 ft | 10 kts | 173° |
| 2026-04-29 02:52 | 19.08642 | 72.86641 | 49 ft | 10 kts | 213° |
| 2026-04-29 02:52 | 19.08625 | 72.86634 | 50 ft | 0 kts | 197° |